createdAt,value
2019-05-09T00:00:18.493Z,10.50
2019-05-09T00:02:48.011Z,10.40
2019-05-09T00:05:17.549Z,10.40
2019-05-09T00:07:47.020Z,10.40
2019-05-09T00:10:16.935Z,10.40
2019-05-09T00:12:46.423Z,10.40
2019-05-09T00:15:15.888Z,10.30
2019-05-09T00:17:45.338Z,10.40
2019-05-09T00:20:39.577Z,10.40
2019-05-09T00:23:09.091Z,10.40
2019-05-09T00:25:38.543Z,10.40
2019-05-09T00:28:07.978Z,10.40
2019-05-09T00:30:55.103Z,10.50
2019-05-09T00:33:27.743Z,10.50
2019-05-09T00:35:57.278Z,10.50
2019-05-09T00:38:33.337Z,10.50
2019-05-09T00:41:03.860Z,10.50
2019-05-09T00:43:34.219Z,10.50
2019-05-09T00:46:19.488Z,10.50
2019-05-09T00:49:00.427Z,10.50
2019-05-09T00:51:29.860Z,10.50
2019-05-09T00:53:59.424Z,10.50
2019-05-09T00:56:28.888Z,10.50
2019-05-09T00:58:58.326Z,10.40
2019-05-09T01:01:27.753Z,10.40
2019-05-09T01:03:57.337Z,10.40
2019-05-09T01:06:26.798Z,10.40
2019-05-09T01:08:56.267Z,10.40
2019-05-09T01:11:25.689Z,10.40
2019-05-09T01:13:55.394Z,10.30
2019-05-09T01:16:25.235Z,10.30
2019-05-09T01:18:56.501Z,10.30
2019-05-09T01:21:25.924Z,10.30
2019-05-09T01:23:55.445Z,10.30
2019-05-09T01:26:24.981Z,10.30
2019-05-09T01:28:54.424Z,10.30
2019-05-09T01:31:24.464Z,10.20
2019-05-09T01:34:09.905Z,10.30
2019-05-09T01:36:57.064Z,10.20
2019-05-09T01:39:26.527Z,10.20
2019-05-09T01:41:55.994Z,10.10
2019-05-09T01:44:25.419Z,10.10
2019-05-09T01:46:54.847Z,10.10
2019-05-09T01:49:24.341Z,10.10
2019-05-09T01:51:53.929Z,10.10
2019-05-09T01:54:24.576Z,10.10
2019-05-09T01:56:54.077Z,10.00
2019-05-09T01:59:24.710Z,10.00
2019-05-09T02:01:54.374Z,10.00
2019-05-09T02:04:24.407Z,10.00
2019-05-09T02:06:53.999Z,9.90
2019-05-09T02:09:23.613Z,9.90
2019-05-09T02:11:54.506Z,9.90
2019-05-09T02:14:36.520Z,9.90
2019-05-09T02:17:23.253Z,9.90
2019-05-09T02:19:53.293Z,9.90
2019-05-09T02:22:35.030Z,9.90
2019-05-09T02:25:06.562Z,9.80
2019-05-09T02:27:36.031Z,9.80
2019-05-09T02:30:06.527Z,9.80
2019-05-09T02:32:36.329Z,9.80
2019-05-09T02:35:06.672Z,9.80
2019-05-09T02:37:38.924Z,9.80
2019-05-09T02:40:09.728Z,9.70
2019-05-09T02:42:39.802Z,9.70
2019-05-09T02:45:09.902Z,9.60
2019-05-09T02:47:39.346Z,9.60
2019-05-09T02:50:10.161Z,9.60
2019-05-09T02:52:40.127Z,9.60
2019-05-09T02:55:10.753Z,9.60
2019-05-09T02:57:40.791Z,9.50
2019-05-09T03:00:39.533Z,9.50
2019-05-09T03:03:15.431Z,9.60
2019-05-09T03:05:44.847Z,9.50
2019-05-09T03:08:14.462Z,9.60
2019-05-09T03:10:43.894Z,9.60
2019-05-09T03:13:13.425Z,9.70
2019-05-09T03:15:43.406Z,9.70
2019-05-09T03:18:12.860Z,9.60
2019-05-09T03:21:01.241Z,9.60
2019-05-09T03:23:30.703Z,9.60
2019-05-09T03:26:00.131Z,9.60
2019-05-09T03:28:39.062Z,9.60
2019-05-09T03:31:09.808Z,9.70
2019-05-09T03:33:40.699Z,9.70
2019-05-09T03:36:10.441Z,9.70
2019-05-09T03:38:39.912Z,9.80
2019-05-09T03:41:09.399Z,9.80
2019-05-09T03:43:38.868Z,9.80
2019-05-09T03:46:20.801Z,9.80
2019-05-09T03:48:53.021Z,9.70
2019-05-09T03:51:22.412Z,9.70
2019-05-09T03:53:51.944Z,9.60
2019-05-09T03:56:27.288Z,9.60
2019-05-09T03:58:57.837Z,9.60
2019-05-09T04:01:28.071Z,9.60
2019-05-09T04:03:58.428Z,9.60
2019-05-09T04:06:28.337Z,9.60
2019-05-09T04:08:58.540Z,9.60
2019-05-09T04:11:28.175Z,9.60
2019-05-09T04:14:02.003Z,9.60
2019-05-09T04:16:31.491Z,9.60
2019-05-09T04:19:00.903Z,9.60
2019-05-09T04:21:30.338Z,9.60
2019-05-09T04:23:59.816Z,9.60
2019-05-09T04:26:43.767Z,9.60
2019-05-09T04:29:13.230Z,9.70
2019-05-09T04:31:42.673Z,9.70
2019-05-09T04:34:12.091Z,9.80
2019-05-09T04:36:41.537Z,9.80
2019-05-09T04:39:13.038Z,9.80
2019-05-09T04:41:43.726Z,9.80
2019-05-09T04:44:21.342Z,9.90
2019-05-09T04:46:49.000Z,9.90
2019-05-09T04:49:19.057Z,9.90
2019-05-09T04:51:48.670Z,10.00
2019-05-09T04:54:18.130Z,10.00
2019-05-09T04:56:47.637Z,10.10
2019-05-09T04:59:17.882Z,10.20
2019-05-09T05:02:05.051Z,10.20
2019-05-09T05:04:34.500Z,10.30
2019-05-09T05:07:03.922Z,10.40
2019-05-09T05:09:33.450Z,10.40
2019-05-09T05:12:04.006Z,10.50
2019-05-09T05:14:33.441Z,10.50
2019-05-09T05:17:10.036Z,10.50
2019-05-09T05:19:37.639Z,10.60
2019-05-09T05:22:38.559Z,10.70
2019-05-09T05:25:09.270Z,10.80
2019-05-09T05:27:38.968Z,10.90
2019-05-09T05:30:09.042Z,11.00
2019-05-09T05:33:08.117Z,11.10
2019-05-09T05:35:41.003Z,11.10
2019-05-09T05:38:10.523Z,11.20
2019-05-09T05:40:45.579Z,11.20
2019-05-09T05:43:11.197Z,11.30
2019-05-09T05:45:50.244Z,11.30
2019-05-09T05:48:27.925Z,11.40
2019-05-09T05:50:57.823Z,11.50
2019-05-09T05:53:27.836Z,11.60
2019-05-09T05:55:58.030Z,11.70
2019-05-09T05:58:28.339Z,11.80
2019-05-09T06:00:58.939Z,12.00
2019-05-09T06:03:28.459Z,12.00
2019-05-09T06:05:58.568Z,12.10
2019-05-09T06:08:28.964Z,12.10
2019-05-09T06:10:58.399Z,12.10
2019-05-09T06:13:27.807Z,12.10
2019-05-09T06:15:58.639Z,12.20
2019-05-09T06:18:28.306Z,12.10
2019-05-09T06:20:58.303Z,12.20
2019-05-09T06:23:28.356Z,12.20
2019-05-09T06:25:58.810Z,12.30
2019-05-09T06:28:28.404Z,12.40
2019-05-09T06:30:58.482Z,12.40
2019-05-09T06:33:28.654Z,12.50
2019-05-09T06:35:58.869Z,12.50
2019-05-09T06:38:28.595Z,12.60
2019-05-09T06:40:58.330Z,12.70
2019-05-09T06:43:30.423Z,12.80
2019-05-09T06:46:30.613Z,12.90
2019-05-09T06:49:20.467Z,12.80
2019-05-09T06:51:32.748Z,12.90
2019-05-09T06:54:02.199Z,13.10
2019-05-09T06:56:31.696Z,13.20
2019-05-09T06:59:01.250Z,13.30
2019-05-09T07:01:37.628Z,13.50
2019-05-09T07:04:12.035Z,13.50
2019-05-09T07:06:48.629Z,13.60
2019-05-09T07:09:24.668Z,13.70
2019-05-09T07:11:54.083Z,13.70
2019-05-09T07:14:33.892Z,13.70
2019-05-09T07:17:02.057Z,13.70
2019-05-09T07:19:31.545Z,13.80
2019-05-09T07:22:04.525Z,13.90
2019-05-09T07:24:56.768Z,13.90
2019-05-09T07:27:24.509Z,13.90
2019-05-09T07:29:54.568Z,14.00
2019-05-09T07:32:24.844Z,14.10
2019-05-09T07:34:58.064Z,14.20
2019-05-09T07:37:27.605Z,14.30
2019-05-09T07:39:57.743Z,14.30
2019-05-09T07:42:28.476Z,14.40
2019-05-09T07:44:59.172Z,14.40
2019-05-09T07:47:28.818Z,14.50
2019-05-09T07:49:58.623Z,14.70
2019-05-09T07:52:28.458Z,14.80
2019-05-09T07:54:58.192Z,15.00
2019-05-09T07:57:28.518Z,15.10
2019-05-09T07:59:58.524Z,15.30
2019-05-09T08:02:28.353Z,15.40
2019-05-09T08:04:58.256Z,15.50
2019-05-09T08:07:29.058Z,15.40
2019-05-09T08:09:58.631Z,15.40
2019-05-09T08:12:28.529Z,15.30
2019-05-09T08:15:08.586Z,15.30
2019-05-09T08:17:29.080Z,15.40
2019-05-09T08:19:58.660Z,15.30
2019-05-09T08:22:32.151Z,15.20
2019-05-09T08:24:59.157Z,15.40
2019-05-09T08:27:30.319Z,15.50
2019-05-09T08:29:59.894Z,15.60
2019-05-09T08:32:29.321Z,15.70
2019-05-09T08:34:58.767Z,15.90
2019-05-09T08:37:28.443Z,16.00
2019-05-09T08:39:57.987Z,16.00
2019-05-09T08:42:29.362Z,16.10
2019-05-09T08:44:58.637Z,16.20
2019-05-09T08:47:28.066Z,16.10
2019-05-09T08:50:09.770Z,15.90
2019-05-09T08:52:39.235Z,15.80
2019-05-09T08:55:08.759Z,15.90
2019-05-09T08:57:38.239Z,16.10
2019-05-09T09:00:08.286Z,16.30
2019-05-09T09:02:37.846Z,16.50
2019-05-09T09:05:08.622Z,16.70
2019-05-09T09:07:38.322Z,16.90
2019-05-09T09:10:08.557Z,17.10
2019-05-09T09:12:38.539Z,17.30
2019-05-09T09:15:08.674Z,17.50
2019-05-09T09:17:38.673Z,17.70
2019-05-09T09:20:08.433Z,17.90
2019-05-09T09:22:37.887Z,17.90
2019-05-09T09:25:07.819Z,18.00
2019-05-09T09:27:38.040Z,18.10
2019-05-09T09:30:20.001Z,18.20
2019-05-09T09:32:39.059Z,18.30
2019-05-09T09:35:08.578Z,18.30
2019-05-09T09:37:48.314Z,18.20
2019-05-09T09:40:09.351Z,18.00
2019-05-09T09:42:39.718Z,17.90
2019-05-09T09:45:09.712Z,17.70
2019-05-09T09:47:40.121Z,17.50
2019-05-09T09:50:10.100Z,17.40
2019-05-09T09:52:39.470Z,17.30
2019-05-09T09:55:09.182Z,17.10
2019-05-09T09:57:38.592Z,16.90
2019-05-09T10:00:23.484Z,16.60
2019-05-09T10:02:52.939Z,16.50
2019-05-09T10:05:22.417Z,16.50
2019-05-09T10:07:51.853Z,16.50
2019-05-09T10:10:41.161Z,16.50
2019-05-09T10:13:10.944Z,16.50
2019-05-09T10:16:26.469Z,16.50
2019-05-09T10:19:08.287Z,16.50
2019-05-09T10:21:41.555Z,16.20
2019-05-09T10:24:10.981Z,15.90
2019-05-09T10:26:59.353Z,15.60
2019-05-09T10:29:29.034Z,15.40
2019-05-09T10:31:58.458Z,15.10
2019-05-09T10:34:28.826Z,14.70
2019-05-09T10:36:58.395Z,14.40
2019-05-09T10:39:27.823Z,14.20
2019-05-09T10:41:58.514Z,14.00
2019-05-09T10:44:39.144Z,14.00
2019-05-09T10:47:27.287Z,14.00
2019-05-09T10:49:58.172Z,14.10
2019-05-09T10:52:28.378Z,14.30
2019-05-09T10:54:58.138Z,14.50
2019-05-09T10:57:31.807Z,14.70
2019-05-09T10:59:58.711Z,14.80
2019-05-09T11:02:28.134Z,14.80
2019-05-09T11:04:57.775Z,15.00
2019-05-09T11:07:29.026Z,15.10
2019-05-09T11:09:58.968Z,15.20
2019-05-09T11:12:28.469Z,15.20
2019-05-09T11:14:59.460Z,15.30
2019-05-09T11:17:29.067Z,15.20
2019-05-09T11:19:58.938Z,15.30
2019-05-09T11:22:29.194Z,15.30
2019-05-09T11:24:58.899Z,15.40
2019-05-09T11:27:29.308Z,15.50
2019-05-09T11:29:58.808Z,15.70
2019-05-09T11:32:28.186Z,16.00
2019-05-09T11:34:57.856Z,16.20
2019-05-09T11:37:27.191Z,16.30
2019-05-09T11:39:57.984Z,16.40
2019-05-09T11:42:28.488Z,16.50
2019-05-09T11:44:58.351Z,16.60
2019-05-09T11:47:37.588Z,16.70
2019-05-09T11:49:58.874Z,16.70
2019-05-09T11:52:28.999Z,16.60
2019-05-09T11:54:58.477Z,16.70
2019-05-09T11:57:31.263Z,16.70
2019-05-09T11:59:58.928Z,16.80
2019-05-09T12:02:28.375Z,17.10
2019-05-09T12:04:57.770Z,17.30
2019-05-09T12:07:28.828Z,17.50
2019-05-09T12:09:58.903Z,17.60
2019-05-09T12:12:28.517Z,17.70
2019-05-09T12:14:58.219Z,17.70
2019-05-09T12:17:40.789Z,17.60
2019-05-09T12:20:09.529Z,17.50
2019-05-09T12:22:29.759Z,17.40
2019-05-09T12:24:59.434Z,17.50
2019-05-09T12:27:28.847Z,17.80
2019-05-09T12:29:58.362Z,18.00
2019-05-09T12:32:28.411Z,18.10
2019-05-09T12:34:58.207Z,18.10
2019-05-09T12:37:28.125Z,17.90
2019-05-09T12:39:58.582Z,17.70
2019-05-09T12:42:29.267Z,17.50
2019-05-09T12:44:59.124Z,17.40
2019-05-09T12:47:29.205Z,17.40
2019-05-09T12:50:02.640Z,17.30
2019-05-09T12:52:29.948Z,17.30
2019-05-09T12:54:59.555Z,17.40
2019-05-09T12:57:29.230Z,17.50
2019-05-09T12:59:58.862Z,17.60
2019-05-09T13:02:28.248Z,17.60
2019-05-09T13:04:57.690Z,17.70
2019-05-09T13:07:29.865Z,18.00
2019-05-09T13:09:58.415Z,18.20
2019-05-09T13:12:29.151Z,18.30
2019-05-09T13:14:59.216Z,18.30
2019-05-09T13:17:34.139Z,18.30
2019-05-09T13:20:05.038Z,18.20
2019-05-09T13:22:34.979Z,18.20
2019-05-09T13:25:05.155Z,18.30
2019-05-09T13:27:34.711Z,18.50
2019-05-09T13:30:04.680Z,18.60
2019-05-09T13:32:34.169Z,18.50
2019-05-09T13:35:03.678Z,18.50
2019-05-09T13:37:33.095Z,18.20
2019-05-09T13:40:02.521Z,17.90
2019-05-09T13:42:32.076Z,17.60
2019-05-09T13:45:01.517Z,17.30
2019-05-09T13:47:30.936Z,16.90
2019-05-09T13:50:00.306Z,16.50
2019-05-09T13:52:29.714Z,16.20
2019-05-09T13:54:59.099Z,15.90
2019-05-09T13:57:28.489Z,15.70
2019-05-09T13:59:59.591Z,15.50
2019-05-09T14:02:29.527Z,15.50
2019-05-09T14:04:59.054Z,15.70
2019-05-09T14:07:28.479Z,16.00
2019-05-09T14:09:57.884Z,16.30
2019-05-09T14:12:28.977Z,16.70
2019-05-09T14:14:58.575Z,17.10
2019-05-09T14:17:44.790Z,17.30
2019-05-09T14:19:59.172Z,17.40
2019-05-09T14:22:28.630Z,17.50
2019-05-09T14:24:58.575Z,17.70
2019-05-09T14:27:28.775Z,17.90
2019-05-09T14:29:59.576Z,18.10
2019-05-09T14:32:31.165Z,18.10
2019-05-09T14:35:00.184Z,18.10
2019-05-09T14:37:29.723Z,18.20
2019-05-09T14:40:03.873Z,18.20
2019-05-09T14:42:30.264Z,18.10
2019-05-09T14:44:59.680Z,18.00
2019-05-09T14:47:29.232Z,17.90
2019-05-09T14:49:59.582Z,17.80
2019-05-09T14:52:29.398Z,17.60
2019-05-09T14:54:58.805Z,17.40
2019-05-09T14:57:28.654Z,17.20
2019-05-09T14:59:58.531Z,17.00
2019-05-09T15:02:27.934Z,16.80
2019-05-09T15:04:58.634Z,16.70
2019-05-09T15:07:28.462Z,16.60
2019-05-09T15:09:59.913Z,16.70
2019-05-09T15:12:29.204Z,16.70
2019-05-09T15:14:58.583Z,16.70
2019-05-09T15:17:28.045Z,16.30
2019-05-09T15:20:00.623Z,15.70
2019-05-09T15:22:28.600Z,15.30
2019-05-09T15:24:59.091Z,14.90
2019-05-09T15:27:28.653Z,14.90
2019-05-09T15:29:58.562Z,15.20
2019-05-09T15:32:27.979Z,15.60
2019-05-09T15:34:57.777Z,16.00
2019-05-09T15:37:28.597Z,16.20
2019-05-09T15:39:58.191Z,16.30
2019-05-09T15:42:30.439Z,16.10
2019-05-09T15:44:59.057Z,15.90
2019-05-09T15:47:33.075Z,15.70
2019-05-09T15:50:15.460Z,15.60
2019-05-09T15:52:33.650Z,15.40
2019-05-09T15:55:03.084Z,15.30
2019-05-09T15:57:32.557Z,15.20
2019-05-09T16:00:01.974Z,15.40
2019-05-09T16:02:33.865Z,15.60
2019-05-09T16:05:02.399Z,15.70
2019-05-09T16:07:31.860Z,15.80
2019-05-09T16:10:01.287Z,15.80
2019-05-09T16:12:30.683Z,15.80
2019-05-09T16:15:00.136Z,15.90
2019-05-09T16:17:29.503Z,16.00
2019-05-09T16:19:58.952Z,16.10
2019-05-09T16:22:28.530Z,16.10
2019-05-09T16:24:57.980Z,16.20
2019-05-09T16:27:27.447Z,16.20
2019-05-09T16:29:57.939Z,16.10
2019-05-09T16:32:27.448Z,16.00
2019-05-09T16:34:56.846Z,15.80
2019-05-09T16:37:28.384Z,15.70
2019-05-09T16:39:57.787Z,15.40
2019-05-09T16:42:27.585Z,15.30
2019-05-09T16:44:59.385Z,15.10
2019-05-09T16:47:28.468Z,14.70
2019-05-09T16:49:59.075Z,14.50
2019-05-09T16:52:28.537Z,14.50
2019-05-09T16:55:11.012Z,14.60
2019-05-09T16:57:40.503Z,14.60
2019-05-09T17:00:13.419Z,14.70
2019-05-09T17:02:42.904Z,14.80
2019-05-09T17:05:12.335Z,15.00
2019-05-09T17:07:41.747Z,15.70
2019-05-09T17:10:11.253Z,16.90
2019-05-09T17:12:40.744Z,18.50
2019-05-09T17:15:10.383Z,18.70
2019-05-09T17:17:39.761Z,18.30
2019-05-09T17:20:10.998Z,17.60
2019-05-09T17:23:10.457Z,16.80
2019-05-09T17:25:28.723Z,16.20
2019-05-09T17:27:59.401Z,15.70
2019-05-09T17:30:29.178Z,15.40
2019-05-09T17:32:59.418Z,15.10
2019-05-09T17:35:28.902Z,14.80
2019-05-09T17:37:58.315Z,14.70
2019-05-09T17:40:28.195Z,14.50
2019-05-09T17:42:59.081Z,14.50
2019-05-09T17:45:28.663Z,14.50
2019-05-09T17:47:58.129Z,14.50
2019-05-09T17:50:28.433Z,14.60
2019-05-09T17:52:58.057Z,14.60
2019-05-09T17:55:27.448Z,14.50
2019-05-09T17:57:58.662Z,14.50
2019-05-09T18:00:28.145Z,14.40
2019-05-09T18:02:58.049Z,14.40
2019-05-09T18:05:27.429Z,14.40
2019-05-09T18:07:57.922Z,14.40
2019-05-09T18:10:27.323Z,14.20
2019-05-09T18:12:58.822Z,14.10
2019-05-09T18:15:28.277Z,14.00
2019-05-09T18:17:58.627Z,13.90
2019-05-09T18:20:28.505Z,13.80
2019-05-09T18:22:58.623Z,13.70
2019-05-09T18:25:28.280Z,13.70
2019-05-09T18:27:57.709Z,13.60
2019-05-09T18:30:27.892Z,13.60
2019-05-09T18:33:08.080Z,13.50
2019-05-09T18:35:39.548Z,13.50
2019-05-09T18:38:10.415Z,13.50
2019-05-09T18:40:40.045Z,13.40
2019-05-09T18:43:09.495Z,13.40
2019-05-09T18:45:38.839Z,13.30
2019-05-09T18:48:08.514Z,13.30
2019-05-09T18:50:38.040Z,13.30
2019-05-09T18:53:07.424Z,13.20
2019-05-09T18:55:36.928Z,13.20
2019-05-09T18:58:06.464Z,13.20
2019-05-09T19:00:35.880Z,13.20
2019-05-09T19:03:05.402Z,13.20
2019-05-09T19:05:34.880Z,13.20
2019-05-09T19:08:04.306Z,13.20
2019-05-09T19:10:33.772Z,13.20
2019-05-09T19:13:03.181Z,13.10
2019-05-09T19:15:50.168Z,13.10
2019-05-09T19:18:38.568Z,13.10
2019-05-09T19:21:15.232Z,13.00
2019-05-09T19:23:44.632Z,13.00
2019-05-09T19:26:31.642Z,13.00
2019-05-09T19:29:01.432Z,13.00
2019-05-09T19:31:30.810Z,12.90
2019-05-09T19:34:00.234Z,12.90
2019-05-09T19:36:29.622Z,13.00
2019-05-09T19:38:59.035Z,12.90
2019-05-09T19:41:28.430Z,12.90
2019-05-09T19:43:57.915Z,12.80
2019-05-09T19:46:27.349Z,12.80
2019-05-09T19:48:56.866Z,12.70
2019-05-09T19:51:26.228Z,12.60
2019-05-09T19:53:55.649Z,12.50
2019-05-09T19:56:25.060Z,12.50
2019-05-09T19:58:54.491Z,12.50
2019-05-09T20:01:23.943Z,12.40
2019-05-09T20:03:53.410Z,12.40
2019-05-09T20:06:22.847Z,12.40
2019-05-09T20:08:52.249Z,12.40
2019-05-09T20:11:46.723Z,12.40
2019-05-09T20:14:20.148Z,12.50
2019-05-09T20:16:51.341Z,12.50
2019-05-09T20:19:20.847Z,12.50
2019-05-09T20:21:50.255Z,12.50
2019-05-09T20:24:19.729Z,12.40
2019-05-09T20:26:49.104Z,12.40
2019-05-09T20:29:18.493Z,12.40
2019-05-09T20:31:47.938Z,12.30
2019-05-09T20:34:17.353Z,12.30
2019-05-09T20:36:46.831Z,12.30
2019-05-09T20:39:16.364Z,12.30
2019-05-09T20:41:46.020Z,12.30
2019-05-09T20:44:15.569Z,12.30
2019-05-09T20:46:45.143Z,12.30
2019-05-09T20:49:14.748Z,12.30
2019-05-09T20:51:44.377Z,12.30
2019-05-09T20:54:21.179Z,12.20
2019-05-09T20:56:45.283Z,12.10
2019-05-09T20:59:14.948Z,12.20
2019-05-09T21:01:44.470Z,12.10
2019-05-09T21:04:14.082Z,12.10
2019-05-09T21:06:43.638Z,12.10
2019-05-09T21:09:13.239Z,12.10
2019-05-09T21:11:42.817Z,12.10
2019-05-09T21:14:12.427Z,12.10
2019-05-09T21:16:42.023Z,12.10
2019-05-09T21:19:11.583Z,12.10
2019-05-09T21:21:41.179Z,12.10
2019-05-09T21:24:10.851Z,12.00
2019-05-09T21:26:40.428Z,12.00
2019-05-09T21:29:10.045Z,12.00
2019-05-09T21:31:39.611Z,12.00
2019-05-09T21:34:09.226Z,12.00
2019-05-09T21:36:38.619Z,12.00
2019-05-09T21:39:07.982Z,11.90
2019-05-09T21:41:37.414Z,11.80
2019-05-09T21:44:06.835Z,11.90
2019-05-09T21:46:36.292Z,11.80
2019-05-09T21:49:05.727Z,11.80
2019-05-09T21:51:35.274Z,11.80
2019-05-09T21:54:04.667Z,11.90
2019-05-09T21:56:34.068Z,11.80
2019-05-09T21:59:03.514Z,11.90
2019-05-09T22:01:32.937Z,11.90
2019-05-09T22:04:02.315Z,11.90
2019-05-09T22:06:31.695Z,11.90
2019-05-09T22:09:01.116Z,11.80
2019-05-09T22:11:30.507Z,11.90
2019-05-09T22:13:59.917Z,11.90
2019-05-09T22:16:29.287Z,11.90
2019-05-09T22:18:58.735Z,12.00
2019-05-09T22:21:28.117Z,12.00
2019-05-09T22:23:57.534Z,12.00
2019-05-09T22:26:27.180Z,12.10
2019-05-09T22:28:56.602Z,12.10
2019-05-09T22:31:26.015Z,12.10
2019-05-09T22:33:55.488Z,12.00
2019-05-09T22:36:24.928Z,12.00
2019-05-09T22:38:54.355Z,12.00
2019-05-09T22:41:23.764Z,12.00
2019-05-09T22:43:53.147Z,11.90
2019-05-09T22:46:22.607Z,11.90
2019-05-09T22:48:52.011Z,11.90
2019-05-09T22:51:21.512Z,11.90
2019-05-09T22:53:50.956Z,11.90
2019-05-09T22:56:20.374Z,11.80
2019-05-09T22:58:49.795Z,11.80
2019-05-09T23:01:19.193Z,11.80
2019-05-09T23:03:48.623Z,11.80
2019-05-09T23:06:17.988Z,11.70
2019-05-09T23:08:47.384Z,11.70
2019-05-09T23:11:16.804Z,11.70
2019-05-09T23:13:52.422Z,11.70
2019-05-09T23:16:25.774Z,11.70
2019-05-09T23:18:55.411Z,11.80
2019-05-09T23:21:26.906Z,11.80
2019-05-09T23:23:59.499Z,11.80
2019-05-09T23:26:28.887Z,11.80
2019-05-09T23:28:58.275Z,11.80
2019-05-09T23:31:34.541Z,11.80
2019-05-09T23:34:03.986Z,11.80
2019-05-09T23:36:33.344Z,11.80
2019-05-09T23:39:30.732Z,11.80
2019-05-09T23:42:00.190Z,11.70
2019-05-09T23:44:29.640Z,11.70
2019-05-09T23:46:59.162Z,11.70
2019-05-09T23:49:28.588Z,11.70
2019-05-09T23:51:58.040Z,11.70
2019-05-09T23:54:46.946Z,11.60
2019-05-09T23:57:33.687Z,11.50
